METAR Formatted Surface Weather Observation
Issued by NWS Charleston, WV

Home | Current Version | Previous Version | Text Only | Print | Product List | Glossary On
Versions: 1 2 3 4 5 6 7 8 9 10 11 12 13 14 15 16 17 18 19 20 21 22 23 24 25 26 27 28 29 30 31 32 33
000
SAUS41 KRLX 172301 COR
MTRCRW
METAR KCRW 172254Z 29004KT 10SM BKN037 19/14 A2997 RMK AO2 SLP144
T01940139



USA.gov is the U.S. government's official web portal to all federal, state and local government web resources and services.